Bei Facebook empfehlenBei Twitter postenGoogle plusPinterest

Das Wetter im Erzgebirge am 20.07.2017

Wetter und Klima am 20.07.2017 Holzhau im Erzgebirge (630m ü.NN)
Letzte gemessene Temperatur und Uhrzeit der Messung23:45:00 Uhr14.60 °C
Temperatur (Maximum / Höchstwert) und Uhrzeit der Messung14:00:00 Uhr29.40 °C
Temperatur (Minimum / Tiefstwert) und Uhrzeit der Messung23:45:0014.60 °C
Errechneter Absolutwert der Temperaturschwankungen zwischen Tmin und Tmax des Tages14.80 K
Errechnete Tagesmitteltemperatur20.31979 °C
Gesamt - Niederschlag des Tages (in flüssiger Form)4.66 Liter / m²
Luftdruck (Maximum / Höchstwert) und Zeitpunkt der Messung01:15:00 Uhr1012.10 hPa
Luftdruck (Minimum / Tiefstwert) und Zeitpunkt der Messung07:45:00 Uhr1007.90 hPa
Errechneter Absolutwert der Luftdruckschwankungen des Tages4.20 hPa
Höchste gemessene Windgeschwindigkeit und Uhrzeit der Messung09:45:00 Uhr72.72 km/h
Errechnete Windhäufigkeit in Relation zu den Messwerten des Tages5.20833 %
Niedrigste Windkühle (Windchill) und Zeitpunkt der Messung23:45:00 Uhr14.60 °C
Taupunkt (Maximum / Höchstwert) und Uhrzeit der Messung17:30:00 Uhr18.90 °C
Taupunkt (Minimum / Tiefstwert) und Uhrzeit der Messung03:30:0012.00 °C
Anzahl der automatisch eingelesenen Messwerte 96

Detaillierte Wetter- und Klima- Messwerte für den 20.07.2017 in Holzhau im Erzgebirge (630m ü.NN)
ZeitTemperaturLuftdruckRel. LuftfeuchteWindWindrichtungWindchillTaupunktNiederschlag l/m²
23:45:0014.60 °C1011.10 hPa91.00 %13.10 °C4.66
23:30:0014.80 °C1010.90 hPa91.00 %13.30 °C4.66
23:15:0015.00 °C1010.90 hPa90.00 %13.40 °C4.66
23:00:0015.30 °C1010.80 hPa90.00 %13.70 °C4.66
22:45:0015.60 °C1010.70 hPa90.00 %14.00 °C4.66
22:30:0015.80 °C1010.50 hPa89.00 %14.00 °C4.66
22:15:0016.10 °C1010.70 hPa89.00 %14.30 °C4.66
22:00:0016.30 °C1010.60 hPa88.00 %14.30 °C4.66
21:45:0016.60 °C1010.70 hPa88.00 %14.60 °C4.66
21:30:0016.80 °C1010.70 hPa88.00 %14.80 °C4.66
21:15:0016.90 °C1010.60 hPa88.00 %14.90 °C4.66
21:00:0017.10 °C1010.50 hPa87.00 %14.90 °C4.66
20:45:0017.30 °C1010.40 hPa86.00 %14.90 °C4.66
20:30:0017.40 °C1010.50 hPa86.00 %15.00 °C4.66
20:15:0017.60 °C1010.20 hPa85.00 %15.00 °C4.66
20:00:0017.80 °C1010.10 hPa84.00 %15.10 °C4.66
19:45:0018.00 °C1010.40 hPa82.00 %14.90 °C4.66
19:30:0018.20 °C1010.30 hPa81.00 %14.90 °C4.66
19:15:0019.10 °C1010.10 hPa76.00 %14.80 °C4.66
19:00:0022.10 °C1010.30 hPa68.00 %15.90 °C3.62
18:45:0024.40 °C1009.50 hPa65.00 %17.40 °C1.55
18:30:0024.30 °C1009.50 hPa67.00 %15.48 km/hS24.30 °C17.80 °C1.55
18:15:0024.10 °C1009.30 hPa66.00 %17.40 °C1.55
18:00:0024.80 °C1009.40 hPa64.00 %17.50 °C1.55
17:45:0025.60 °C1009.50 hPa65.00 %24.48 km/hSW27.40 °C18.50 °C1.55
17:30:0025.00 °C1009.50 hPa69.00 %18.90 °C1.55
17:15:0024.10 °C1009.40 hPa72.00 %18.70 °C1.55
17:00:0022.90 °C1009.40 hPa76.00 %18.40 °C1.55
16:45:0021.20 °C1009.40 hPa79.00 %17.40 °C1.55
16:30:0020.10 °C1009.50 hPa79.00 %16.30 °C1.55
16:15:0021.10 °C1009.80 hPa71.00 %15.60 °C1.55
16:00:0023.90 °C1010.10 hPa63.00 %16.40 °C1.03
15:45:0026.40 °C1009.70 hPa58.00 %17.50 °C1.03
15:30:0025.90 °C1009.60 hPa59.00 %17.30 °C1.03
15:15:0024.90 °C1009.70 hPa63.00 %17.40 °C1.03
15:00:0025.10 °C1009.80 hPa58.00 %16.30 °C1.03
14:45:0027.30 °C1009.60 hPa52.00 %16.60 °C1.03
14:30:0028.20 °C1009.40 hPa52.00 %17.40 °C1.03
14:15:0027.60 °C1009.40 hPa53.00 %17.20 °C1.03
14:00:0029.40 °C1009.60 hPa49.00 %17.60 °C1.03
13:45:0028.90 °C1009.50 hPa52.00 %18.10 °C1.03
13:30:0028.90 °C1009.40 hPa50.00 %15.48 km/hW28.90 °C17.40 °C1.03
13:15:0028.60 °C1009.50 hPa52.00 %17.80 °C1.03
13:00:0028.70 °C1009.50 hPa49.00 %16.90 °C1.03
12:45:0028.20 °C1009.50 hPa53.00 %17.70 °C1.03
12:30:0028.20 °C1009.60 hPa53.00 %17.70 °C1.03
12:15:0027.90 °C1009.50 hPa53.00 %17.40 °C1.03
12:00:0027.80 °C1009.60 hPa53.00 %17.30 °C1.03
11:45:0027.30 °C1009.50 hPa56.00 %17.80 °C1.03
11:30:0026.50 °C1009.80 hPa56.00 %17.00 °C1.03
11:15:0026.10 °C1009.70 hPa54.00 %16.10 °C1.03
11:00:0026.40 °C1009.50 hPa56.00 %16.90 °C1.03
10:45:0026.50 °C1009.50 hPa57.00 %17.30 °C1.03
10:30:0025.90 °C1009.20 hPa59.00 %17.30 °C1.03
10:15:0025.30 °C1009.20 hPa62.00 %17.50 °C1.03
10:00:0024.40 °C1009.00 hPa63.00 %16.90 °C1.03
09:45:0024.10 °C1009.00 hPa64.00 %72.72 km/hSW25.20 °C16.90 °C1.03
09:30:0023.40 °C1009.30 hPa69.00 %17.40 °C1.03
09:15:0022.60 °C1009.20 hPa75.00 %17.90 °C1.03
09:00:0021.90 °C1009.10 hPa75.00 %7.92 km/hSSO21.90 °C17.30 °C1.03
08:45:0020.60 °C1009.30 hPa79.00 %16.80 °C1.03
08:30:0019.00 °C1008.90 hPa85.00 %16.40 °C1.03
08:15:0018.40 °C1008.80 hPa85.00 %15.80 °C1.03
08:00:0017.60 °C1008.30 hPa86.00 %15.20 °C1.03
07:45:0017.30 °C1007.90 hPa87.00 %15.10 °C1.03
07:30:0016.70 °C1008.00 hPa88.00 %14.70 °C1.03
07:15:0016.40 °C1007.90 hPa92.00 %15.10 °C1.03
07:00:0015.10 °C1008.20 hPa91.00 %13.60 °C1.03
06:45:0015.00 °C1008.30 hPa91.00 %13.50 °C1.03
06:30:0014.80 °C1008.20 hPa91.00 %13.30 °C1.03
06:15:0014.70 °C1008.80 hPa91.00 %13.20 °C1.03
06:00:0014.80 °C1009.10 hPa91.00 %13.30 °C1.03
05:45:0014.80 °C1008.50 hPa90.00 %13.20 °C1.03
05:30:0014.90 °C1009.20 hPa89.00 %13.10 °C1.03
05:15:0014.90 °C1010.10 hPa88.00 %12.90 °C1.03
05:00:0015.10 °C1010.80 hPa87.00 %13.00 °C0.52
04:45:0015.60 °C1010.90 hPa86.00 %13.30 °C0.52
04:30:0015.90 °C1011.40 hPa84.00 %13.20 °C 
04:15:0015.30 °C1011.40 hPa85.00 %12.80 °C 
04:00:0015.10 °C1010.90 hPa83.00 %12.20 °C 
03:45:0015.10 °C1010.80 hPa83.00 %12.20 °C 
03:30:0014.90 °C1011.00 hPa83.00 %12.00 °C 
03:15:0015.00 °C1010.80 hPa82.00 %12.00 °C 
03:00:0015.30 °C1010.90 hPa81.00 %12.10 °C 
02:45:0015.60 °C1010.80 hPa80.00 %12.20 °C 
02:30:0015.90 °C1010.80 hPa79.00 %12.30 °C 
02:15:0016.30 °C1011.30 hPa78.00 %12.50 °C 
02:00:0016.70 °C1011.50 hPa77.00 %12.70 °C 
01:45:0017.20 °C1011.80 hPa75.00 %12.70 °C 
01:30:0017.80 °C1011.90 hPa75.00 %13.30 °C 
01:15:0018.30 °C1012.10 hPa74.00 %13.60 °C 
01:00:0018.80 °C1011.30 hPa74.00 %14.10 °C 
00:45:0018.30 °C1011.20 hPa77.00 %14.20 °C 
00:30:0016.90 °C1010.10 hPa79.00 %13.20 °C 
00:15:0016.90 °C1010.20 hPa77.00 %12.80 °C 
00:00:0017.40 °C1010.40 hPa76.00 %13.10 °C 

Permanenter Link zu dieser Seite: Wetter im Erzgebirge am 20.07.2017
Performance-Info: Die Erstellung der Seite / Statistik(en) / Tabelle(n) erforderte 5 Datenbankserver-Abfrage(n) und dauerte 123 Millisekunden. (Dieser Messwert ist von der Gesamt-Auslastung des Servers abhängig.)
Erzgebirge - Wetter | Erzgebirge - Wetter (Mobilgeräte) | Komplette Klimadatenbank